createdAt,value
2022-10-26T00:00:52.387Z,71.82
2022-10-26T00:03:19.825Z,66.82
2022-10-26T00:05:46.601Z,67.43
2022-10-26T00:08:13.508Z,72.25
2022-10-26T00:10:40.270Z,76.80
2022-10-26T00:13:10.934Z,75.45
2022-10-26T00:15:41.698Z,90.47
2022-10-26T00:18:09.303Z,84.45
2022-10-26T00:20:35.941Z,89.47
2022-10-26T00:23:02.557Z,106.28
2022-10-26T00:25:29.391Z,97.43
2022-10-26T00:27:56.072Z,115.18
2022-10-26T00:30:23.066Z,114.97
2022-10-26T00:32:49.733Z,102.95
2022-10-26T00:35:23.275Z,105.05
2022-10-26T00:37:56.379Z,74.60
2022-10-26T00:40:27.454Z,92.38
2022-10-26T00:42:54.025Z,90.20
2022-10-26T00:45:24.030Z,80.97
2022-10-26T00:48:01.661Z,77.93
2022-10-26T00:50:31.051Z,82.45
2022-10-26T00:52:59.338Z,82.30
2022-10-26T00:55:32.559Z,105.93
2022-10-26T00:58:00.529Z,110.50
2022-10-26T01:00:27.120Z,102.63
2022-10-26T01:02:56.087Z,108.50
2022-10-26T01:05:24.101Z,99.78
2022-10-26T01:07:52.099Z,99.20
2022-10-26T01:10:19.144Z,107.50
2022-10-26T01:12:46.345Z,105.18
2022-10-26T01:15:13.575Z,94.93
2022-10-26T01:17:57.003Z,104.40
2022-10-26T01:20:32.804Z,103.78
2022-10-26T01:23:38.228Z,97.18
2022-10-26T01:26:32.880Z,101.88
2022-10-26T01:29:08.382Z,100.43
2022-10-26T01:31:43.184Z,99.10
2022-10-26T01:34:29.218Z,100.93
2022-10-26T01:37:00.543Z,102.70
2022-10-26T01:39:49.273Z,97.18
2022-10-26T01:42:18.189Z,90.50
2022-10-26T01:44:52.187Z,85.15
2022-10-26T01:47:22.431Z,91.38
2022-10-26T01:49:52.955Z,76.53
2022-10-26T01:52:20.227Z,71.07
2022-10-26T01:54:46.874Z,72.45
2022-10-26T01:57:19.363Z,81.60
2022-10-26T02:00:04.254Z,84.25
2022-10-26T02:02:48.934Z,80.10
2022-10-26T02:05:25.049Z,84.22
2022-10-26T02:08:12.585Z,72.22
2022-10-26T02:11:07.376Z,80.40
2022-10-26T02:16:33.504Z,90.45
2022-10-26T02:19:29.522Z,84.00
2022-10-26T02:22:04.356Z,87.18
2022-10-26T02:24:35.017Z,80.25
2022-10-26T02:27:04.085Z,80.00
2022-10-26T02:29:33.257Z,85.15
2022-10-26T02:32:02.399Z,91.32
2022-10-26T02:34:30.662Z,89.00
2022-10-26T02:36:59.779Z,88.57
2022-10-26T02:39:29.935Z,77.70
2022-10-26T02:41:57.043Z,72.95
2022-10-26T02:44:27.074Z,68.47
2022-10-26T02:46:56.073Z,59.00
2022-10-26T02:49:23.277Z,59.75
2022-10-26T02:52:01.757Z,55.90
2022-10-26T02:54:46.712Z,54.90
2022-10-26T02:57:24.596Z,58.60
2022-10-26T02:59:52.459Z,54.63
2022-10-26T03:02:21.090Z,54.17
2022-10-26T03:04:50.446Z,60.72
2022-10-26T03:07:21.956Z,55.53
2022-10-26T03:09:48.569Z,58.25
2022-10-26T03:12:15.377Z,64.05
2022-10-26T03:14:42.028Z,62.58
2022-10-26T03:17:08.727Z,65.53
2022-10-26T03:19:35.446Z,71.10
2022-10-26T03:22:02.024Z,84.20
2022-10-26T03:24:28.601Z,78.22
2022-10-26T03:26:57.152Z,80.10
2022-10-26T03:29:26.282Z,75.20
2022-10-26T03:31:54.576Z,78.35
2022-10-26T03:34:21.948Z,70.05
2022-10-26T03:36:48.868Z,68.60
2022-10-26T03:39:15.488Z,63.60
2022-10-26T03:41:42.408Z,67.95
2022-10-26T03:44:09.281Z,57.17
2022-10-26T03:46:35.926Z,56.22
2022-10-26T03:49:02.816Z,55.22
2022-10-26T03:51:29.666Z,61.47
2022-10-26T03:53:56.266Z,63.35
2022-10-26T03:56:23.132Z,57.80
2022-10-26T03:58:49.934Z,59.08
2022-10-26T04:01:16.559Z,58.53
2022-10-26T04:03:43.330Z,60.22
2022-10-26T04:06:10.194Z,61.60
2022-10-26T04:08:37.118Z,75.20
2022-10-26T04:11:04.760Z,73.45
2022-10-26T04:13:31.785Z,73.97
2022-10-26T04:15:58.654Z,78.78
2022-10-26T04:18:25.580Z,79.13
2022-10-26T04:20:52.169Z,83.28
2022-10-26T04:23:20.049Z,80.43
2022-10-26T04:25:47.101Z,85.55
2022-10-26T04:28:14.612Z,72.10
2022-10-26T04:30:41.544Z,75.57
2022-10-26T04:33:08.349Z,66.32
2022-10-26T04:35:35.107Z,67.10
2022-10-26T04:38:04.397Z,60.95
2022-10-26T04:40:32.597Z,61.33
2022-10-26T04:42:59.546Z,58.83
2022-10-26T04:45:28.580Z,55.13
2022-10-26T04:48:13.332Z,52.30
2022-10-26T04:50:40.658Z,51.20
2022-10-26T04:53:09.397Z,52.35
2022-10-26T04:55:36.799Z,49.88
2022-10-26T04:58:04.140Z,53.58
2022-10-26T05:00:32.953Z,45.70
2022-10-26T05:03:01.637Z,45.67
2022-10-26T05:05:29.013Z,54.00
2022-10-26T05:07:56.874Z,52.72
2022-10-26T05:10:24.976Z,52.55
2022-10-26T05:12:56.339Z,49.28
2022-10-26T05:15:23.020Z,52.20
2022-10-26T05:18:01.969Z,47.78
2022-10-26T05:20:31.385Z,50.33
2022-10-26T05:22:59.719Z,46.50
2022-10-26T05:25:26.945Z,45.15
2022-10-26T05:28:01.248Z,45.15
2022-10-26T05:30:29.659Z,46.65
2022-10-26T05:32:57.679Z,47.40
2022-10-26T05:35:25.829Z,47.10
2022-10-26T05:37:53.480Z,45.83
2022-10-26T05:40:20.543Z,47.03
2022-10-26T05:42:47.402Z,49.05
2022-10-26T05:45:14.445Z,49.08
2022-10-26T05:47:42.435Z,45.75
2022-10-26T05:50:09.964Z,48.95
2022-10-26T05:52:46.211Z,50.92
2022-10-26T05:55:15.626Z,48.38
2022-10-26T05:57:42.988Z,49.95
2022-10-26T06:00:19.424Z,49.75
2022-10-26T06:03:11.762Z,50.25
2022-10-26T06:05:54.810Z,49.85
2022-10-26T06:08:23.790Z,54.03
2022-10-26T06:10:51.404Z,53.63
2022-10-26T06:13:18.465Z,51.63
2022-10-26T06:15:54.072Z,48.25
2022-10-26T06:18:44.161Z,50.05
2022-10-26T06:21:40.349Z,48.95
2022-10-26T06:24:19.422Z,55.03
2022-10-26T06:27:35.275Z,49.75
2022-10-26T06:30:10.313Z,55.90
2022-10-26T06:32:37.512Z,54.22
2022-10-26T06:35:14.294Z,51.17
2022-10-26T06:37:44.752Z,52.00
2022-10-26T06:40:14.813Z,55.45
2022-10-26T06:42:42.203Z,48.35
2022-10-26T06:47:57.655Z,47.55
2022-10-26T06:50:38.473Z,45.65
2022-10-26T06:53:25.629Z,43.55
2022-10-26T06:55:52.779Z,41.67
2022-10-26T06:58:22.126Z,43.35
2022-10-26T07:00:51.190Z,42.95
2022-10-26T07:03:17.921Z,48.85
2022-10-26T07:05:46.239Z,41.95
2022-10-26T07:08:12.938Z,40.05
2022-10-26T07:10:39.991Z,41.17
2022-10-26T07:13:07.078Z,50.60
2022-10-26T07:15:34.786Z,48.22
2022-10-26T07:18:03.259Z,46.30
2022-10-26T07:20:29.850Z,55.80
2022-10-26T07:22:57.128Z,51.72
2022-10-26T07:25:25.401Z,49.58
2022-10-26T07:27:52.259Z,54.80
2022-10-26T07:30:19.200Z,51.40
2022-10-26T07:32:45.926Z,55.53
2022-10-26T07:35:12.663Z,57.90
2022-10-26T07:37:39.502Z,59.08
2022-10-26T07:40:07.150Z,64.15
2022-10-26T07:42:34.657Z,75.55
2022-10-26T07:45:01.359Z,80.93
2022-10-26T07:47:27.907Z,77.03
2022-10-26T07:49:54.505Z,72.10
2022-10-26T07:52:21.378Z,64.22
2022-10-26T07:54:48.025Z,83.20
2022-10-26T07:57:17.058Z,78.22
2022-10-26T07:59:44.109Z,80.57
2022-10-26T08:02:10.956Z,82.95
2022-10-26T08:04:37.539Z,78.63
2022-10-26T08:07:04.199Z,71.60
2022-10-26T08:09:31.057Z,78.90
2022-10-26T08:11:57.634Z,76.03
2022-10-26T08:14:24.428Z,59.58
2022-10-26T08:16:52.649Z,70.75
2022-10-26T08:19:19.904Z,67.25
2022-10-26T08:21:46.760Z,63.45
2022-10-26T08:24:13.405Z,50.03
2022-10-26T08:26:40.019Z,46.00
2022-10-26T08:29:07.024Z,63.08
2022-10-26T08:31:33.668Z,42.33
2022-10-26T08:34:00.366Z,48.22
2022-10-26T08:36:28.110Z,39.80
2022-10-26T08:38:54.789Z,39.03
2022-10-26T08:41:46.132Z,32.78
2022-10-26T08:44:35.709Z,41.40
2022-10-26T08:47:13.865Z,43.15
2022-10-26T08:49:52.910Z,42.17
2022-10-26T08:52:24.667Z,43.22
2022-10-26T08:55:02.009Z,44.92
2022-10-26T08:57:41.495Z,45.67
2022-10-26T09:00:15.472Z,41.05
2022-10-26T09:02:42.683Z,48.42
2022-10-26T09:05:16.385Z,42.47
2022-10-26T09:07:58.052Z,37.72
2022-10-26T09:10:40.165Z,43.05
2022-10-26T09:13:21.306Z,41.88
2022-10-26T09:16:07.994Z,48.95
2022-10-26T09:19:09.522Z,45.95
2022-10-26T09:21:47.326Z,47.42
2022-10-26T09:24:15.816Z,47.28
2022-10-26T09:27:07.728Z,49.03
2022-10-26T09:29:43.594Z,38.55
2022-10-26T09:32:18.372Z,46.60
2022-10-26T09:34:52.600Z,42.75
2022-10-26T09:39:58.797Z,49.97
2022-10-26T09:42:52.655Z,40.13
2022-10-26T09:45:25.384Z,37.88
2022-10-26T09:47:54.872Z,39.47
2022-10-26T09:50:33.306Z,48.33
2022-10-26T09:52:59.960Z,45.75
2022-10-26T09:55:27.807Z,48.75
2022-10-26T09:57:57.654Z,41.65
2022-10-26T10:00:26.216Z,55.42
2022-10-26T10:02:57.349Z,54.17
2022-10-26T10:05:49.786Z,60.20
2022-10-26T10:08:22.532Z,64.18
2022-10-26T10:11:08.496Z,64.10
2022-10-26T10:13:40.767Z,61.90
2022-10-26T10:16:11.439Z,76.47
2022-10-26T10:18:39.824Z,71.57
2022-10-26T10:21:07.961Z,70.57
2022-10-26T10:23:53.271Z,71.82
2022-10-26T10:26:20.072Z,72.68
2022-10-26T10:29:01.254Z,66.97
2022-10-26T10:31:30.094Z,75.50
2022-10-26T10:33:56.989Z,69.80
2022-10-26T10:36:27.349Z,75.72
2022-10-26T10:38:54.247Z,69.15
2022-10-26T10:41:32.511Z,69.55
2022-10-26T10:44:24.456Z,66.10
2022-10-26T10:46:51.245Z,78.43
2022-10-26T10:49:24.977Z,71.90
2022-10-26T10:51:52.100Z,77.78
2022-10-26T10:54:31.076Z,66.35
2022-10-26T10:57:22.450Z,69.45
2022-10-26T11:00:09.963Z,63.10
2022-10-26T11:02:51.568Z,69.25
2022-10-26T11:05:29.425Z,78.05
2022-10-26T11:08:20.781Z,94.60
2022-10-26T11:11:10.977Z,89.70
2022-10-26T11:13:54.211Z,109.55
2022-10-26T11:16:32.440Z,116.03
2022-10-26T11:19:06.162Z,99.65
2022-10-26T11:21:38.162Z,109.40
2022-10-26T11:24:18.217Z,101.07
2022-10-26T11:26:57.574Z,100.93
2022-10-26T11:29:53.175Z,121.78
2022-10-26T11:32:46.047Z,106.57
2022-10-26T11:35:27.070Z,103.20
2022-10-26T11:38:01.901Z,91.43
2022-10-26T11:40:40.205Z,116.40
2022-10-26T11:43:19.897Z,97.97
2022-10-26T11:46:01.364Z,90.30
2022-10-26T11:49:05.091Z,74.22
2022-10-26T11:51:56.816Z,98.32
2022-10-26T11:54:52.393Z,104.43
2022-10-26T11:57:21.227Z,67.75
2022-10-26T11:59:57.638Z,111.65
2022-10-26T12:02:25.824Z,88.85
2022-10-26T12:05:03.640Z,108.13
2022-10-26T12:07:33.277Z,72.30
2022-10-26T12:10:01.666Z,82.35
2022-10-26T12:12:46.611Z,60.30
2022-10-26T12:15:40.053Z,58.83
2022-10-26T12:18:50.345Z,56.10
2022-10-26T12:21:18.416Z,53.67
2022-10-26T12:24:23.983Z,80.70
2022-10-26T12:26:53.707Z,79.72
2022-10-26T12:29:32.382Z,89.70
2022-10-26T12:31:59.280Z,86.10
2022-10-26T12:34:46.847Z,68.25
2022-10-26T12:37:29.542Z,54.13
2022-10-26T12:40:31.222Z,59.25
2022-10-26T12:42:58.831Z,37.33
2022-10-26T12:45:25.508Z,79.38
2022-10-26T12:47:52.413Z,73.72
2022-10-26T12:50:23.998Z,65.63
2022-10-26T12:53:10.842Z,40.25
2022-10-26T12:55:46.757Z,47.40
2022-10-26T12:58:44.961Z,105.25
2022-10-26T13:01:30.404Z,37.78
2022-10-26T13:04:17.775Z,32.92
2022-10-26T13:07:21.795Z,41.42
2022-10-26T13:09:56.405Z,79.57
2022-10-26T13:12:23.471Z,61.30
2022-10-26T13:15:19.495Z,58.08
2022-10-26T13:17:58.864Z,40.78
2022-10-26T13:20:26.662Z,44.17
2022-10-26T13:22:54.164Z,44.45
2022-10-26T13:25:28.100Z,82.60
2022-10-26T13:28:07.789Z,33.88
2022-10-26T13:30:34.451Z,45.17
2022-10-26T13:33:02.856Z,44.03
2022-10-26T13:35:31.958Z,41.17
2022-10-26T13:38:07.990Z,38.55
2022-10-26T13:40:37.987Z,47.58
2022-10-26T13:43:07.654Z,45.83
2022-10-26T13:45:46.508Z,33.90
2022-10-26T13:48:19.441Z,29.20
2022-10-26T13:51:23.596Z,25.00
2022-10-26T13:54:00.239Z,19.88
2022-10-26T13:56:38.203Z,22.75
2022-10-26T13:59:13.357Z,21.60
2022-10-26T14:01:40.419Z,22.02
2022-10-26T14:04:18.096Z,21.40
2022-10-26T14:06:51.461Z,21.60
2022-10-26T14:09:20.086Z,40.63
2022-10-26T14:11:55.704Z,19.80
2022-10-26T14:14:31.645Z,22.17
2022-10-26T14:16:59.265Z,24.83
2022-10-26T14:19:46.132Z,22.65
2022-10-26T14:22:24.342Z,23.25
2022-10-26T14:24:56.862Z,25.45
2022-10-26T14:27:26.351Z,29.40
2022-10-26T14:30:20.548Z,32.25
2022-10-26T14:32:41.441Z,32.70
2022-10-26T14:35:13.082Z,37.50
2022-10-26T14:37:49.612Z,38.13
2022-10-26T14:40:19.784Z,36.67
2022-10-26T14:42:53.277Z,39.95
2022-10-26T14:45:48.236Z,34.78
2022-10-26T14:48:35.623Z,38.25
2022-10-26T14:51:19.269Z,38.10
2022-10-26T14:53:52.351Z,40.30
2022-10-26T14:56:35.452Z,46.80
2022-10-26T14:59:20.533Z,50.92
2022-10-26T15:01:57.353Z,53.10
2022-10-26T15:04:35.373Z,75.45
2022-10-26T15:07:13.409Z,69.20
2022-10-26T15:09:51.093Z,74.72
2022-10-26T15:12:36.642Z,70.32
2022-10-26T15:15:15.994Z,52.65
2022-10-26T15:17:49.796Z,58.03
2022-10-26T15:20:21.383Z,72.93
2022-10-26T15:22:59.785Z,78.50
2022-10-26T15:25:29.910Z,77.57
2022-10-26T15:28:20.552Z,52.45
2022-10-26T15:31:07.868Z,61.55
2022-10-26T15:33:35.025Z,65.05
2022-10-26T15:36:21.882Z,69.78
2022-10-26T15:38:48.715Z,70.90
2022-10-26T15:41:24.944Z,82.35
2022-10-26T15:43:54.061Z,81.72
2022-10-26T15:46:21.628Z,103.50
2022-10-26T15:48:54.940Z,97.30
2022-10-26T15:51:21.837Z,110.07
2022-10-26T15:53:48.596Z,87.90
2022-10-26T15:56:18.352Z,140.30
2022-10-26T15:58:45.995Z,98.13
2022-10-26T16:01:17.820Z,152.95
2022-10-26T16:03:45.067Z,76.85
2022-10-26T16:06:27.163Z,85.47
2022-10-26T16:08:57.083Z,103.25
2022-10-26T16:11:24.236Z,128.63
2022-10-26T16:16:22.850Z,162.68
2022-10-26T16:19:06.119Z,99.57
2022-10-26T16:21:41.931Z,110.45
2022-10-26T16:24:09.852Z,152.98
2022-10-26T16:26:36.664Z,92.43
2022-10-26T16:29:03.875Z,96.88
2022-10-26T16:31:30.713Z,133.43
2022-10-26T16:34:00.294Z,174.40
2022-10-26T16:36:30.003Z,124.88
2022-10-26T16:38:56.706Z,144.63
2022-10-26T16:43:56.380Z,116.97
2022-10-26T16:46:23.775Z,216.38
2022-10-26T16:48:51.278Z,204.63
2022-10-26T16:51:23.802Z,237.55
2022-10-26T16:53:53.965Z,239.32
2022-10-26T16:56:26.139Z,224.27
2022-10-26T16:58:53.763Z,223.48
2022-10-26T17:01:21.350Z,212.45
2022-10-26T17:03:50.481Z,230.27
2022-10-26T17:06:18.110Z,230.93
2022-10-26T17:08:44.964Z,177.35
2022-10-26T17:11:20.455Z,209.70
2022-10-26T17:13:47.909Z,197.18
2022-10-26T17:16:17.207Z,107.20
2022-10-26T17:18:45.141Z,201.02
2022-10-26T17:21:13.602Z,215.68
2022-10-26T17:23:40.265Z,257.13
2022-10-26T17:26:10.635Z,209.52
2022-10-26T17:28:37.665Z,232.60
2022-10-26T17:31:08.605Z,239.57
2022-10-26T17:33:36.778Z,229.25
2022-10-26T17:36:05.731Z,232.98
2022-10-26T17:38:37.857Z,224.73
2022-10-26T17:41:14.388Z,160.25
2022-10-26T17:43:43.036Z,136.95
2022-10-26T17:46:25.051Z,175.73
2022-10-26T17:48:59.175Z,170.10
2022-10-26T17:53:53.954Z,114.45
2022-10-26T17:56:29.374Z,198.15
2022-10-26T17:59:01.125Z,163.27
2022-10-26T18:01:29.119Z,165.13
2022-10-26T18:03:56.164Z,131.15
2022-10-26T18:06:23.741Z,142.60
2022-10-26T18:08:50.644Z,140.43
2022-10-26T18:11:25.279Z,172.23
2022-10-26T18:13:56.876Z,191.20
2022-10-26T18:16:25.407Z,167.45
2022-10-26T18:19:01.513Z,97.88
2022-10-26T18:21:31.000Z,120.32
2022-10-26T18:23:58.016Z,185.32
2022-10-26T18:26:28.895Z,174.88
2022-10-26T18:28:56.916Z,126.80
2022-10-26T18:31:24.783Z,166.13
2022-10-26T18:33:57.348Z,163.82
2022-10-26T18:36:25.152Z,140.65
2022-10-26T18:38:52.147Z,159.20
2022-10-26T18:41:20.732Z,165.05
2022-10-26T18:43:49.777Z,168.32
2022-10-26T18:46:24.996Z,160.57
2022-10-26T18:48:52.332Z,185.27
2022-10-26T18:51:21.637Z,153.63
2022-10-26T18:53:49.127Z,174.73
2022-10-26T18:56:20.132Z,186.48
2022-10-26T18:58:51.730Z,191.52
2022-10-26T19:01:22.110Z,126.05
2022-10-26T19:03:53.165Z,158.60
2022-10-26T19:06:34.782Z,141.02
2022-10-26T19:09:01.661Z,149.68
2022-10-26T19:11:29.999Z,163.75
2022-10-26T19:13:57.216Z,194.70
2022-10-26T19:16:44.751Z,191.68
2022-10-26T19:19:13.585Z,189.82
2022-10-26T19:21:40.340Z,200.32
2022-10-26T19:24:12.584Z,197.52
2022-10-26T19:26:43.109Z,196.32
2022-10-26T19:29:15.773Z,201.63
2022-10-26T19:31:47.169Z,200.77
2022-10-26T19:34:15.700Z,199.93
2022-10-26T19:36:45.432Z,153.98
2022-10-26T19:39:14.384Z,117.80
2022-10-26T19:41:41.004Z,176.85
2022-10-26T19:44:07.957Z,152.70
2022-10-26T19:46:35.550Z,210.48
2022-10-26T19:49:02.940Z,198.07
2022-10-26T19:51:31.571Z,177.48
2022-10-26T19:54:03.117Z,158.10
2022-10-26T19:56:30.863Z,160.48
2022-10-26T19:58:57.773Z,174.57
2022-10-26T20:01:25.919Z,184.57
2022-10-26T20:03:52.843Z,165.73
2022-10-26T20:06:20.176Z,165.02
2022-10-26T20:08:49.038Z,148.35
2022-10-26T20:11:17.565Z,177.35
2022-10-26T20:13:46.487Z,181.55
2022-10-26T20:16:14.266Z,180.60
2022-10-26T20:18:44.284Z,171.00
2022-10-26T20:21:16.486Z,167.30
2022-10-26T20:23:44.459Z,174.80
2022-10-26T20:26:18.237Z,177.57
2022-10-26T20:28:48.780Z,175.25
2022-10-26T20:31:15.602Z,178.98
2022-10-26T20:33:42.487Z,166.85
2022-10-26T20:36:09.773Z,173.07
2022-10-26T20:38:36.842Z,171.35
2022-10-26T20:41:06.372Z,176.77
2022-10-26T20:43:39.128Z,162.65
2022-10-26T20:46:09.885Z,177.75
2022-10-26T20:48:38.753Z,174.50
2022-10-26T20:51:15.779Z,173.70
2022-10-26T20:53:51.025Z,170.60
2022-10-26T20:56:24.899Z,170.30
2022-10-26T20:58:56.041Z,174.43
2022-10-26T21:01:31.799Z,165.73
2022-10-26T21:04:00.687Z,144.77
2022-10-26T21:06:27.828Z,166.27
2022-10-26T21:08:56.779Z,169.23
2022-10-26T21:11:25.718Z,166.07
2022-10-26T21:13:53.737Z,162.27
2022-10-26T21:18:49.051Z,153.45
2022-10-26T21:21:16.028Z,146.70
2022-10-26T21:23:43.216Z,130.65
2022-10-26T21:26:09.953Z,137.63
2022-10-26T21:28:41.915Z,137.73
2022-10-26T21:31:10.764Z,129.73
2022-10-26T21:33:37.796Z,116.35
2022-10-26T21:36:06.964Z,103.93
2022-10-26T21:38:34.889Z,98.10
2022-10-26T21:41:06.162Z,101.90
2022-10-26T21:43:33.535Z,97.85
2022-10-26T21:46:04.500Z,100.88
2022-10-26T21:48:32.517Z,100.47
2022-10-26T21:51:01.661Z,105.45
2022-10-26T21:53:28.625Z,112.85
2022-10-26T21:56:02.131Z,143.20
2022-10-26T21:58:30.018Z,104.75
2022-10-26T22:01:18.038Z,132.60
2022-10-26T22:03:44.919Z,154.23
2022-10-26T22:06:14.509Z,144.20
2022-10-26T22:08:41.860Z,164.90
2022-10-26T22:11:19.863Z,157.82
2022-10-26T22:13:48.167Z,157.25
2022-10-26T22:16:19.060Z,147.82
2022-10-26T22:18:46.327Z,162.20
2022-10-26T22:21:14.664Z,169.68
2022-10-26T22:23:42.671Z,145.63
2022-10-26T22:26:12.388Z,153.77
2022-10-26T22:28:42.722Z,164.45
2022-10-26T22:31:16.395Z,142.93
2022-10-26T22:33:43.721Z,157.27
2022-10-26T22:36:13.370Z,166.15
2022-10-26T22:38:40.805Z,148.25
2022-10-26T22:41:08.499Z,160.27
2022-10-26T22:43:35.487Z,161.30
2022-10-26T22:46:16.529Z,167.18
2022-10-26T22:48:45.574Z,163.15
2022-10-26T22:51:18.257Z,142.55
2022-10-26T22:53:44.858Z,158.63
2022-10-26T22:56:13.565Z,148.85
2022-10-26T22:58:40.993Z,148.95
2022-10-26T23:01:13.673Z,149.93
2022-10-26T23:03:41.356Z,143.45
2022-10-26T23:06:10.759Z,152.73
2022-10-26T23:08:37.421Z,149.20
2022-10-26T23:11:08.938Z,142.10
2022-10-26T23:13:36.148Z,148.50
2022-10-26T23:16:11.800Z,126.88
2022-10-26T23:18:38.701Z,123.90
2022-10-26T23:21:07.729Z,124.47
2022-10-26T23:23:35.533Z,128.98
2022-10-26T23:26:03.257Z,113.05
2022-10-26T23:28:30.692Z,113.38
2022-10-26T23:30:57.535Z,105.07
2022-10-26T23:33:24.247Z,108.45
2022-10-26T23:35:51.968Z,105.80
2022-10-26T23:38:19.081Z,114.28
2022-10-26T23:40:50.747Z,113.13
2022-10-26T23:43:17.564Z,125.43
2022-10-26T23:45:44.219Z,114.15
2022-10-26T23:48:10.795Z,120.65
2022-10-26T23:50:37.399Z,118.63
2022-10-26T23:53:04.342Z,117.05
2022-10-26T23:55:30.912Z,114.70
2022-10-26T23:57:57.603Z,112.70
